Time;durP1;ratioP1;P1;durP2;ratioP2;P2;SDS_P1;SDS_P2;PMS_P1;PMS_P2;Temp;Humidity;BMP_temperature;BMP_pressure;BME280_temperature;BME280_humidity;BME280_pressure;Samples;Min_cycle;Max_cycle;Signal;HPM_P1;HPM_P2
2023/11/10 00:01:03;;;;;;;2.25;0.65;;;18.20;63.10;;;;;;5048267;28;20311;-64
2023/11/10 00:03:29;;;;;;;1.60;0.70;;;18.20;63.20;;;;;;5050646;28;20027;-63
2023/11/10 00:05:55;;;;;;;1.08;0.60;;;18.20;63.10;;;;;;5048130;28;20017;-64
2023/11/10 00:08:21;;;;;;;0.95;0.55;;;18.20;63.10;;;;;;5051519;28;20534;-63
2023/11/10 00:10:47;;;;;;;0.73;0.50;;;18.30;63.10;;;;;;5054027;28;20044;-64
2023/11/10 00:13:15;;;;;;;0.90;0.57;;;18.20;63.10;;;;;;5049190;28;20108;-64
2023/11/10 00:15:41;;;;;;;0.90;0.60;;;18.20;63.10;;;;;;5047802;28;20056;-64
2023/11/10 00:18:06;;;;;;;1.00;0.50;;;18.20;63.10;;;;;;5054031;28;20029;-64
2023/11/10 00:20:36;;;;;;;1.05;0.57;;;18.20;63.10;;;;;;5051327;28;20032;-64
2023/11/10 00:23:03;;;;;;;0.77;0.60;;;18.20;63.20;;;;;;5054938;28;20407;-64
2023/11/10 00:25:28;;;;;;;2.08;0.93;;;18.20;63.00;;;;;;5054058;28;20044;-64
2023/11/10 00:27:54;;;;;;;1.08;0.70;;;18.20;63.10;;;;;;5051291;28;20037;-62
2023/11/10 00:30:20;;;;;;;0.68;0.50;;;18.20;63.20;;;;;;5052219;28;20032;-64
2023/11/10 00:32:45;;;;;;;2.83;0.68;;;18.20;63.00;;;;;;5051761;28;20116;-62
2023/11/10 00:35:11;;;;;;;1.45;0.57;;;18.20;63.00;;;;;;5043608;28;20041;-64
2023/11/10 00:37:36;;;;;;;1.00;0.70;;;18.20;63.00;;;;;;5047429;28;20045;-62
2023/11/10 00:40:02;;;;;;;1.83;0.47;;;18.20;63.10;;;;;;5046793;28;20051;-64
2023/11/10 00:42:28;;;;;;;0.70;0.45;;;18.20;63.10;;;;;;5042425;28;20033;-64
2023/11/10 00:44:56;;;;;;;2.15;0.80;;;18.20;62.90;;;;;;5044304;28;20045;-64
2023/11/10 00:47:21;;;;;;;0.60;0.57;;;18.20;63.10;;;;;;5047052;28;20103;-63
2023/11/10 00:49:47;;;;;;;0.50;0.30;;;18.10;62.90;;;;;;5042860;28;20476;-64
2023/11/10 00:52:13;;;;;;;1.08;0.50;;;18.20;63.00;;;;;;5047698;28;20070;-64
2023/11/10 00:54:38;;;;;;;2.08;0.60;;;18.20;62.90;;;;;;5045551;28;20029;-63
2023/11/10 00:57:04;;;;;;;0.88;0.68;;;18.10;62.90;;;;;;5045742;28;20033;-64
2023/11/10 00:59:29;;;;;;;0.60;0.50;;;18.20;62.90;;;;;;5045500;28;20567;-64
2023/11/10 01:01:55;;;;;;;1.15;0.90;;;18.20;62.80;;;;;;5045315;28;20483;-65
2023/11/10 01:04:21;;;;;;;0.90;0.70;;;18.20;62.80;;;;;;5053182;28;20156;-64
2023/11/10 01:06:46;;;;;;;0.80;0.50;;;18.20;62.90;;;;;;5052414;28;21328;-62
2023/11/10 01:09:12;;;;;;;0.50;0.45;;;18.10;62.80;;;;;;5051332;28;20423;-64
2023/11/10 01:11:37;;;;;;;1.30;0.70;;;18.20;62.90;;;;;;5052698;28;20036;-63
2023/11/10 01:14:04;;;;;;;0.77;0.47;;;18.20;62.90;;;;;;5055789;28;20458;-63
2023/11/10 01:16:30;;;;;;;0.63;0.40;;;18.10;62.90;;;;;;5054510;28;20499;-63
2023/11/10 01:18:56;;;;;;;0.73;0.60;;;18.10;62.80;;;;;;5050026;28;20053;-63
2023/11/10 01:21:21;;;;;;;1.45;0.60;;;18.10;62.90;;;;;;5052568;28;20456;-63
2023/11/10 01:23:47;;;;;;;0.82;0.50;;;18.20;63.10;;;;;;5049466;28;20033;-61
2023/11/10 01:26:15;;;;;;;0.93;0.50;;;18.10;62.80;;;;;;5054552;28;20083;-63
2023/11/10 01:28:41;;;;;;;1.40;0.60;;;18.10;62.70;;;;;;5050278;28;20039;-63
2023/11/10 01:31:06;;;;;;;0.93;0.47;;;18.10;62.90;;;;;;5052662;28;20447;-63
2023/11/10 01:33:32;;;;;;;0.75;0.45;;;18.10;62.90;;;;;;5043951;28;20032;-63
2023/11/10 01:35:57;;;;;;;0.85;0.50;;;18.10;62.80;;;;;;5043996;28;20124;-63
2023/11/10 01:38:23;;;;;;;0.55;0.40;;;18.10;62.80;;;;;;5045160;28;20514;-63
2023/11/10 01:40:50;;;;;;;0.68;0.47;;;18.10;62.70;;;;;;5044329;28;20049;-62
2023/11/10 01:43:16;;;;;;;2.15;0.63;;;18.10;62.80;;;;;;5041224;28;20033;-63
2023/11/10 01:45:43;;;;;;;1.35;0.50;;;18.10;62.70;;;;;;5038291;28;20310;-63
2023/11/10 01:48:11;;;;;;;0.75;0.50;;;18.10;62.70;;;;;;5042275;28;20052;-63
2023/11/10 01:50:41;;;;;;;0.70;0.50;;;18.10;62.80;;;;;;5039964;28;20029;-63
2023/11/10 01:53:09;;;;;;;0.43;0.30;;;18.10;62.60;;;;;;5033946;28;20078;-63
2023/11/10 01:55:35;;;;;;;1.50;0.40;;;18.10;62.70;;;;;;5044398;28;20029;-63
2023/11/10 01:58:02;;;;;;;0.45;0.40;;;18.10;62.70;;;;;;5046571;28;20025;-64
2023/11/10 02:00:32;;;;;;;0.30;0.30;;;18.10;62.70;;;;;;5043001;28;20033;-63
2023/11/10 02:03:02;;;;;;;0.30;0.30;;;18.10;62.50;;;;;;5045041;28;20040;-64
2023/11/10 02:05:27;;;;;;;1.80;0.40;;;18.10;62.70;;;;;;5040549;28;20029;-64
2023/11/10 02:07:53;;;;;;;0.90;0.47;;;18.10;62.70;;;;;;5043838;28;20889;-63
2023/11/10 02:10:19;;;;;;;1.65;0.50;;;18.10;62.60;;;;;;5041793;28;20043;-63
2023/11/10 02:12:57;;;;;;;0.55;0.50;;;18.10;62.70;;;;;;5043342;28;20040;-64
2023/11/10 02:15:24;;;;;;;0.75;0.40;;;18.10;62.60;;;;;;5041453;28;20407;-64
2023/11/10 02:17:51;;;;;;;1.77;0.40;;;18.10;62.80;;;;;;5042872;28;20038;-63
2023/11/10 02:20:16;;;;;;;0.40;0.40;;;18.10;62.50;;;;;;5038653;28;20028;-62
2023/11/10 02:22:49;;;;;;;3.00;1.17;;;18.10;62.50;;;;;;5047281;28;20509;-64
2023/11/10 02:25:19;;;;;;;1.27;0.40;;;18.10;62.70;;;;;;5046328;28;20483;-65
2023/11/10 02:27:45;;;;;;;0.75;0.47;;;18.10;62.60;;;;;;5044965;28;20522;-63
2023/11/10 02:30:11;;;;;;;0.40;0.40;;;18.00;62.50;;;;;;5045309;28;20033;-63
2023/11/10 02:32:36;;;;;;;0.60;0.50;;;18.00;62.50;;;;;;5043957;28;20063;-63
2023/11/10 02:35:04;;;;;;;0.65;0.40;;;18.10;62.50;;;;;;5043206;28;20036;-64
2023/11/10 02:37:29;;;;;;;0.90;0.45;;;18.10;62.60;;;;;;5042169;28;20037;-63
2023/11/10 02:39:55;;;;;;;0.70;0.40;;;18.10;62.40;;;;;;5039616;28;20314;-63
2023/11/10 02:42:20;;;;;;;0.47;0.43;;;18.10;62.50;;;;;;5039512;28;20136;-64
2023/11/10 02:44:46;;;;;;;0.30;0.22;;;18.10;62.50;;;;;;5038668;28;20029;-63
2023/11/10 02:47:11;;;;;;;0.55;0.35;;;18.10;62.60;;;;;;5037653;28;20396;-64
2023/11/10 02:49:37;;;;;;;1.10;0.40;;;18.00;62.40;;;;;;5037814;28;20514;-59
2023/11/10 02:52:03;;;;;;;1.40;0.47;;;18.00;62.40;;;;;;5044327;28;20087;-62
2023/11/10 02:54:28;;;;;;;0.98;0.52;;;18.00;62.50;;;;;;5044493;28;20041;-64
2023/11/10 02:56:54;;;;;;;0.90;0.50;;;18.10;62.40;;;;;;5041762;28;20115;-64
2023/11/10 02:59:19;;;;;;;0.77;0.40;;;18.00;62.50;;;;;;5044121;28;20033;-62
2023/11/10 03:01:45;;;;;;;2.63;0.35;;;18.10;62.60;;;;;;5045212;28;20103;-60
2023/11/10 03:04:10;;;;;;;0.30;0.30;;;18.00;62.40;;;;;;5051452;28;20029;-64
2023/11/10 03:06:36;;;;;;;1.48;0.40;;;18.00;62.40;;;;;;5053254;28;20052;-63
2023/11/10 03:09:01;;;;;;;0.73;0.52;;;18.00;62.60;;;;;;5047046;28;20037;-63
2023/11/10 03:11:27;;;;;;;0.40;0.40;;;18.10;62.50;;;;;;5045697;28;20029;-62
2023/11/10 03:13:54;;;;;;;0.47;0.30;;;18.00;62.50;;;;;;5045141;28;20037;-64
2023/11/10 03:16:21;;;;;;;0.35;0.30;;;18.00;62.50;;;;;;5044282;28;20025;-64
2023/11/10 03:18:48;;;;;;;1.15;0.35;;;18.00;62.50;;;;;;5045374;28;20720;-63
2023/11/10 03:21:17;;;;;;;0.98;0.30;;;18.00;62.50;;;;;;5044941;28;20043;-64
2023/11/10 03:23:43;;;;;;;0.95;0.30;;;18.00;62.50;;;;;;5045391;28;20348;-64
2023/11/10 03:26:08;;;;;;;0.80;0.40;;;18.00;62.50;;;;;;5048394;28;20021;-64
2023/11/10 03:28:34;;;;;;;0.70;0.30;;;18.00;62.50;;;;;;5048261;28;20025;-63
2023/11/10 03:31:00;;;;;;;1.38;0.65;;;18.00;62.70;;;;;;5047524;28;20109;-59
2023/11/10 03:33:26;;;;;;;1.50;0.60;;;18.00;62.50;;;;;;5044949;28;20502;-64
2023/11/10 03:35:52;;;;;;;0.43;0.30;;;18.00;62.50;;;;;;5045652;28;20029;-64
2023/11/10 03:38:17;;;;;;;0.60;0.32;;;18.00;62.60;;;;;;5044979;28;20025;-64
2023/11/10 03:40:43;;;;;;;1.02;0.40;;;18.00;62.50;;;;;;5043745;28;20059;-63
2023/11/10 03:43:08;;;;;;;0.63;0.40;;;18.00;62.50;;;;;;5040749;28;20029;-63
2023/11/10 03:45:34;;;;;;;3.33;0.55;;;18.00;62.40;;;;;;5039400;28;20032;-63
2023/11/10 03:47:59;;;;;;;0.65;0.30;;;18.00;62.50;;;;;;5040155;28;20113;-63
2023/11/10 03:50:25;;;;;;;0.40;0.30;;;18.00;62.40;;;;;;5037446;28;20037;-63
2023/11/10 03:52:50;;;;;;;0.60;0.30;;;18.00;63.10;;;;;;5038850;28;20033;-63
2023/11/10 03:55:16;;;;;;;0.70;0.32;;;18.00;62.40;;;;;;5039235;28;20087;-63
2023/11/10 03:57:41;;;;;;;0.70;0.30;;;18.00;62.50;;;;;;5039816;28;20029;-62
2023/11/10 04:00:09;;;;;;;0.60;0.30;;;18.00;62.40;;;;;;5041082;28;20032;-63
2023/11/10 04:02:34;;;;;;;0.47;0.20;;;18.00;62.50;;;;;;5040902;28;20117;-63
2023/11/10 04:05:00;;;;;;;0.85;0.32;;;18.00;62.40;;;;;;5047568;28;20055;-63
2023/11/10 04:07:25;;;;;;;0.30;0.25;;;18.00;62.50;;;;;;5049757;28;20060;-63
2023/11/10 04:09:51;;;;;;;0.90;0.25;;;18.00;62.40;;;;;;5049913;28;20043;-63
2023/11/10 04:12:16;;;;;;;0.70;0.30;;;18.00;62.40;;;;;;5050676;28;20450;-63
2023/11/10 04:14:42;;;;;;;0.40;0.40;;;18.00;62.50;;;;;;5049768;28;20612;-63
2023/11/10 04:17:07;;;;;;;0.65;0.28;;;18.00;62.50;;;;;;5050013;28;20035;-64
2023/11/10 04:19:33;;;;;;;0.30;0.28;;;17.90;62.40;;;;;;5049676;28;20036;-64
2023/11/10 04:21:59;;;;;;;0.30;0.30;;;17.90;62.40;;;;;;5048579;28;20063;-63
2023/11/10 04:24:24;;;;;;;0.25;0.20;;;17.90;62.60;;;;;;5049930;28;20037;-64
2023/11/10 04:26:50;;;;;;;0.47;0.30;;;17.90;62.50;;;;;;5048282;28;20095;-63
2023/11/10 04:29:15;;;;;;;0.60;0.40;;;17.90;62.40;;;;;;5049043;28;20376;-64
2023/11/10 04:31:41;;;;;;;0.45;0.32;;;17.90;62.60;;;;;;5049679;28;20055;-63
2023/11/10 04:34:07;;;;;;;0.20;0.20;;;17.90;62.40;;;;;;5049950;28;20033;-63
2023/11/10 04:36:33;;;;;;;0.98;0.30;;;17.90;62.40;;;;;;5042274;28;20087;-64
2023/11/10 04:38:58;;;;;;;0.57;0.40;;;17.90;62.50;;;;;;5041103;28;20507;-63
2023/11/10 04:41:24;;;;;;;0.60;0.22;;;17.90;62.40;;;;;;5038609;28;20033;-64
2023/11/10 04:43:50;;;;;;;0.60;0.30;;;17.90;62.30;;;;;;5044060;28;20036;-63
2023/11/10 04:46:15;;;;;;;0.47;0.40;;;17.90;62.50;;;;;;5043422;28;20025;-61
2023/11/10 04:48:41;;;;;;;0.47;0.25;;;17.90;62.40;;;;;;5041576;28;20109;-62
2023/11/10 04:51:06;;;;;;;0.30;0.20;;;17.90;62.40;;;;;;5046132;28;20437;-64
2023/11/10 04:53:33;;;;;;;0.63;0.55;;;17.90;62.40;;;;;;5048042;28;20029;-63
2023/11/10 04:56:00;;;;;;;0.60;0.40;;;17.90;62.30;;;;;;5040427;28;20551;-63
2023/11/10 04:58:26;;;;;;;0.57;0.30;;;17.90;62.40;;;;;;5039140;28;20029;-63
2023/11/10 05:00:52;;;;;;;0.25;0.20;;;17.90;62.30;;;;;;5035809;28;20025;-61
2023/11/10 05:03:18;;;;;;;0.73;0.30;;;17.90;62.30;;;;;;5042577;28;20566;-64
2023/11/10 05:05:45;;;;;;;0.55;0.20;;;17.90;62.50;;;;;;5035811;28;20507;-63
2023/11/10 05:08:11;;;;;;;0.70;0.30;;;17.90;62.40;;;;;;5044746;28;20041;-64
2023/11/10 05:10:37;;;;;;;0.43;0.30;;;17.90;62.30;;;;;;5048995;28;20032;-63
2023/11/10 05:13:03;;;;;;;1.00;0.28;;;17.90;62.30;;;;;;5058720;28;20033;-63
2023/11/10 05:15:29;;;;;;;0.30;0.20;;;17.90;62.40;;;;;;5050039;28;20053;-63
2023/11/10 05:17:54;;;;;;;0.20;0.20;;;17.90;62.30;;;;;;5052937;28;20407;-63
2023/11/10 05:20:21;;;;;;;0.30;0.25;;;17.90;62.40;;;;;;5048966;28;20091;-60
2023/11/10 05:22:47;;;;;;;1.00;0.30;;;17.90;62.40;;;;;;5055791;28;20037;-63
2023/11/10 05:25:12;;;;;;;0.20;0.13;;;17.90;62.40;;;;;;5047331;28;20514;-61
2023/11/10 05:27:39;;;;;;;0.25;0.17;;;17.90;62.30;;;;;;5055780;28;20514;-64
2023/11/10 05:30:06;;;;;;;0.20;0.20;;;17.90;62.30;;;;;;5051565;28;20045;-62
2023/11/10 05:32:32;;;;;;;0.17;0.17;;;17.90;63.10;;;;;;5048166;28;20031;-63
2023/11/10 05:34:58;;;;;;;0.47;0.20;;;17.90;62.30;;;;;;5044936;28;20029;-63
2023/11/10 05:37:24;;;;;;;0.50;0.20;;;17.90;62.30;;;;;;5055318;28;20396;-63
2023/11/10 05:39:51;;;;;;;0.52;0.30;;;17.90;62.30;;;;;;5053225;28;20124;-63
2023/11/10 05:42:17;;;;;;;0.22;0.20;;;17.90;62.50;;;;;;5054956;28;20052;-63
2023/11/10 05:44:43;;;;;;;0.20;0.20;;;17.90;62.40;;;;;;5050898;28;20083;-63
2023/11/10 05:47:09;;;;;;;1.55;0.30;;;17.80;62.40;;;;;;5047877;28;20029;-63
2023/11/10 05:49:35;;;;;;;0.22;0.20;;;17.90;62.30;;;;;;5044825;28;20036;-64
2023/11/10 05:52:00;;;;;;;0.55;0.40;;;17.90;62.50;;;;;;5061993;28;20036;-63
2023/11/10 05:54:26;;;;;;;0.50;0.20;;;17.90;62.40;;;;;;5052224;28;20295;-61
2023/11/10 05:56:55;;;;;;;0.28;0.20;;;17.90;62.50;;;;;;5066588;28;20085;-63
2023/11/10 05:59:25;;;;;;;0.70;0.30;;;17.80;62.30;;;;;;5051447;28;20050;-63
2023/11/10 06:01:51;;;;;;;0.68;0.30;;;17.90;62.40;;;;;;5058479;28;20048;-63
2023/11/10 06:04:16;;;;;;;0.40;0.30;;;17.90;62.40;;;;;;5047587;28;20039;-66
2023/11/10 06:06:43;;;;;;;0.50;0.30;;;17.80;62.30;;;;;;5040003;28;20052;-66
2023/11/10 06:09:09;;;;;;;1.00;0.60;;;17.80;62.40;;;;;;5042039;28;20044;-67
2023/11/10 06:11:35;;;;;;;2.28;0.35;;;17.80;62.30;;;;;;5039710;28;20087;-67
2023/11/10 06:14:02;;;;;;;0.30;0.30;;;17.80;62.40;;;;;;5035977;28;20041;-66
2023/11/10 06:16:28;;;;;;;2.53;0.20;;;17.80;62.60;;;;;;5038402;28;20105;-66
2023/11/10 06:18:54;;;;;;;2.13;0.30;;;17.80;62.60;;;;;;5041308;28;20028;-65
2023/11/10 06:21:21;;;;;;;1.90;0.30;;;17.80;62.80;;;;;;5040301;28;20140;-66
2023/11/10 06:23:49;;;;;;;0.82;0.20;;;17.80;62.70;;;;;;5039602;28;20049;-66
2023/11/10 06:26:16;;;;;;;2.80;0.20;;;17.80;62.70;;;;;;5040902;28;20028;-66
2023/11/10 06:28:43;;;;;;;0.95;0.52;;;17.80;62.70;;;;;;5038146;28;20036;-66
2023/11/10 06:31:08;;;;;;;0.98;0.30;;;17.90;62.80;;;;;;5053187;28;20561;-61
2023/11/10 06:33:34;;;;;;;3.10;0.47;;;17.90;62.90;;;;;;5035555;28;20029;-66
2023/11/10 06:36:01;;;;;;;1.55;0.45;;;17.90;63.10;;;;;;5041669;28;20056;-65
2023/11/10 06:38:26;;;;;;;7.30;0.80;;;17.90;63.20;;;;;;5032655;28;20044;-61
2023/11/10 06:40:53;;;;;;;1.95;0.50;;;17.90;63.30;;;;;;5037200;28;20037;-61
2023/11/10 06:43:19;;;;;;;3.33;0.40;;;17.90;63.30;;;;;;5048648;28;20622;-65
2023/11/10 06:45:44;;;;;;;4.65;0.43;;;17.90;63.20;;;;;;5053678;28;20147;-64
2023/11/10 06:48:10;;;;;;;8.77;0.60;;;17.90;63.20;;;;;;5052690;28;20031;-65
2023/11/10 06:50:35;;;;;;;4.53;0.50;;;18.00;63.30;;;;;;5046522;28;20038;-62
2023/11/10 06:53:01;;;;;;;4.50;0.77;;;17.90;63.30;;;;;;5045136;28;20054;-64
2023/11/10 06:55:26;;;;;;;1.17;0.50;;;18.00;63.30;;;;;;5054657;28;20033;-64
2023/11/10 06:57:52;;;;;;;5.97;0.57;;;17.90;63.20;;;;;;5053123;28;20040;-63
2023/11/10 07:00:18;;;;;;;1.42;0.40;;;17.90;63.20;;;;;;5046247;28;20033;-63
2023/11/10 07:02:43;;;;;;;4.22;1.23;;;17.90;63.30;;;;;;5051770;28;20045;-64
2023/11/10 07:05:09;;;;;;;2.22;0.70;;;17.90;63.20;;;;;;5046838;28;20041;-63
2023/11/10 07:07:36;;;;;;;2.28;0.50;;;17.90;63.20;;;;;;5052964;28;20140;-61
2023/11/10 07:10:01;;;;;;;1.35;0.50;;;17.90;63.10;;;;;;5052876;28;20062;-60
2023/11/10 07:12:27;;;;;;;1.13;0.43;;;17.90;63.20;;;;;;5046790;28;20119;-61
2023/11/10 07:14:53;;;;;;;1.73;0.43;;;17.90;63.00;;;;;;5046581;28;20091;-61
2023/11/10 07:17:19;;;;;;;2.22;0.47;;;17.90;63.00;;;;;;5045562;28;20045;-62
2023/11/10 07:19:45;;;;;;;1.00;0.47;;;17.90;63.00;;;;;;5052672;28;20530;-62
2023/11/10 07:22:10;;;;;;;3.28;0.55;;;17.90;63.00;;;;;;5050246;28;20875;-60
2023/11/10 07:24:36;;;;;;;1.27;0.50;;;17.90;62.90;;;;;;5045102;28;20035;-62
2023/11/10 07:27:06;;;;;;;25.00;2.20;;;17.90;62.90;;;;;;5038884;28;20717;-63
2023/11/10 07:29:35;;;;;;;14.52;1.25;;;17.90;63.50;;;;;;5040420;28;20033;-61
2023/11/10 07:32:02;;;;;;;7.13;0.70;;;18.00;63.60;;;;;;5041065;28;20040;-63
2023/11/10 07:34:28;;;;;;;11.75;1.13;;;18.10;63.30;;;;;;5039730;28;20082;-64
2023/11/10 07:36:54;;;;;;;13.27;2.20;;;18.00;63.40;;;;;;5041356;28;20029;-63
2023/11/10 07:39:21;;;;;;;3.92;0.52;;;17.90;63.50;;;;;;5036515;28;20044;-63
2023/11/10 07:41:47;;;;;;;6.30;0.93;;;17.90;63.60;;;;;;5037344;28;20368;-62
2023/11/10 07:44:13;;;;;;;7.30;0.50;;;17.90;63.70;;;;;;5039410;28;20044;-63
2023/11/10 07:46:39;;;;;;;3.60;0.68;;;17.80;63.80;;;;;;5038648;28;20110;-64
2023/11/10 07:49:05;;;;;;;6.82;0.77;;;17.80;63.80;;;;;;5038363;28;20033;-63
2023/11/10 07:51:31;;;;;;;5.43;0.90;;;17.80;63.90;;;;;;5041419;28;20187;-61
2023/11/10 07:53:57;;;;;;;2.65;1.08;;;17.80;63.90;;;;;;5044460;28;20130;-66
2023/11/10 07:56:23;;;;;;;4.10;0.77;;;17.80;64.00;;;;;;5044900;28;20047;-64
2023/11/10 07:58:48;;;;;;;6.72;0.63;;;17.80;64.00;;;;;;5053746;28;20036;-65
2023/11/10 08:01:14;;;;;;;4.00;0.52;;;17.70;64.00;;;;;;5052622;28;20123;-64
2023/11/10 08:03:42;;;;;;;2.20;0.73;;;17.70;64.00;;;;;;5051589;28;20033;-64
2023/11/10 08:06:11;;;;;;;1.65;0.60;;;17.70;64.00;;;;;;5057910;28;20493;-64
2023/11/10 08:08:38;;;;;;;4.38;0.80;;;17.70;64.10;;;;;;5051802;28;20083;-64
2023/11/10 08:11:04;;;;;;;4.15;0.50;;;17.70;64.10;;;;;;5053168;28;20025;-65
2023/11/10 08:13:29;;;;;;;4.43;0.60;;;17.60;64.10;;;;;;5046559;28;20371;-63
2023/11/10 08:15:55;;;;;;;3.30;0.77;;;17.70;64.10;;;;;;5052707;28;20113;-64
2023/11/10 08:18:21;;;;;;;3.20;0.80;;;17.70;64.20;;;;;;5053797;28;20032;-63
2023/11/10 08:20:47;;;;;;;2.90;0.75;;;17.70;64.20;;;;;;5056284;28;20033;-64
2023/11/10 08:23:14;;;;;;;1.58;0.43;;;17.60;64.10;;;;;;5047990;28;20048;-64
2023/11/10 08:25:41;;;;;;;2.50;0.70;;;17.70;64.20;;;;;;5044234;28;20090;-64
2023/11/10 08:28:08;;;;;;;2.20;0.68;;;17.70;64.20;;;;;;5045113;28;20025;-64
2023/11/10 08:30:33;;;;;;;5.93;0.63;;;17.70;64.20;;;;;;5043959;28;20120;-64
2023/11/10 08:33:01;;;;;;;4.22;0.57;;;17.70;64.20;;;;;;5039686;28;20124;-62
2023/11/10 08:35:27;;;;;;;3.03;0.70;;;17.70;64.20;;;;;;5047442;28;20029;-64
2023/11/10 08:37:53;;;;;;;2.03;0.50;;;17.70;64.20;;;;;;5039693;28;20066;-64
2023/11/10 08:40:19;;;;;;;4.40;0.70;;;17.60;64.20;;;;;;5044578;28;20312;-64
2023/11/10 08:42:45;;;;;;;1.23;0.50;;;17.60;64.20;;;;;;5043064;28;20029;-64
2023/11/10 08:45:15;;;;;;;2.83;0.30;;;17.60;64.20;;;;;;5042541;28;20092;-63
2023/11/10 08:47:42;;;;;;;1.85;0.60;;;17.60;64.20;;;;;;5042751;28;20040;-64
2023/11/10 08:50:12;;;;;;;2.28;0.65;;;17.60;64.20;;;;;;5041670;28;20034;-64
2023/11/10 08:52:40;;;;;;;0.85;0.55;;;17.60;64.20;;;;;;5044482;28;20036;-64
2023/11/10 08:55:10;;;;;;;2.88;0.40;;;17.60;64.20;;;;;;5054932;28;20074;-64
2023/11/10 08:57:38;;;;;;;2.45;0.50;;;17.60;64.30;;;;;;5051956;28;20060;-64
2023/11/10 09:00:06;;;;;;;3.88;0.50;;;17.60;64.30;;;;;;5050564;28;20029;-64
2023/11/10 09:02:32;;;;;;;2.83;0.45;;;17.60;64.20;;;;;;5053567;28;20551;-65
2023/11/10 09:04:57;;;;;;;0.93;0.50;;;17.60;64.30;;;;;;5065250;28;20495;-64
2023/11/10 09:07:23;;;;;;;1.80;0.50;;;17.60;64.30;;;;;;5049826;28;20384;-65
2023/11/10 09:09:50;;;;;;;0.73;0.35;;;17.60;64.30;;;;;;5054903;28;20033;-65
2023/11/10 09:12:17;;;;;;;0.95;0.52;;;17.60;64.30;;;;;;5048889;28;20060;-60
2023/11/10 09:14:42;;;;;;;0.95;0.63;;;17.60;64.30;;;;;;5054212;28;20060;-64
2023/11/10 09:17:08;;;;;;;1.02;0.28;;;17.60;64.30;;;;;;5048922;28;20055;-64
2023/11/10 09:19:33;;;;;;;0.50;0.28;;;17.60;64.30;;;;;;5048460;28;20036;-59
2023/11/10 09:21:59;;;;;;;0.60;0.40;;;17.60;64.30;;;;;;5047825;28;20037;-64
2023/11/10 09:24:24;;;;;;;0.70;0.40;;;17.60;64.30;;;;;;5038516;28;20059;-65
2023/11/10 09:26:50;;;;;;;0.68;0.30;;;17.60;64.30;;;;;;5045070;28;20030;-64
2023/11/10 09:29:15;;;;;;;0.43;0.40;;;17.60;64.30;;;;;;5040232;28;20033;-64
2023/11/10 09:31:41;;;;;;;1.17;0.35;;;17.60;64.30;;;;;;5043490;28;20092;-64
2023/11/10 09:34:06;;;;;;;3.75;0.93;;;17.60;64.30;;;;;;5043247;28;20523;-54
2023/11/10 09:36:33;;;;;;;1.65;0.55;;;17.60;64.30;;;;;;5046814;28;20032;-64
2023/11/10 09:38:58;;;;;;;0.65;0.30;;;17.50;64.30;;;;;;5044737;28;20484;-64
2023/11/10 09:41:30;;;;;;;0.73;0.40;;;17.60;64.30;;;;;;5042920;28;20136;-64
2023/11/10 09:43:56;;;;;;;0.70;0.65;;;17.50;64.30;;;;;;5045686;28;20033;-64
2023/11/10 09:46:23;;;;;;;1.63;0.40;;;17.50;64.30;;;;;;5043065;28;20032;-63
2023/11/10 09:48:51;;;;;;;1.30;0.40;;;17.50;64.30;;;;;;5039289;28;20034;-64
2023/11/10 09:51:19;;;;;;;0.75;0.30;;;17.50;64.30;;;;;;5040576;28;20025;-64
2023/11/10 09:53:45;;;;;;;0.60;0.30;;;17.50;64.30;;;;;;5044855;28;20521;-65
2023/11/10 09:56:12;;;;;;;0.63;0.57;;;17.50;64.30;;;;;;5047251;28;20100;-64
2023/11/10 09:58:38;;;;;;;1.25;0.52;;;17.50;65.00;;;;;;5050975;28;20090;-64
2023/11/10 10:01:06;;;;;;;0.90;0.40;;;17.50;64.40;;;;;;5049284;28;20029;-64
2023/11/10 10:03:34;;;;;;;2.28;0.30;;;17.50;64.40;;;;;;5048431;28;20415;-66
2023/11/10 10:06:00;;;;;;;0.35;0.25;;;17.50;64.40;;;;;;5052931;28;20037;-67
2023/11/10 10:08:26;;;;;;;1.00;0.45;;;17.50;64.40;;;;;;5056617;28;20407;-67
2023/11/10 10:10:52;;;;;;;0.95;0.60;;;17.50;64.30;;;;;;5053197;28;20025;-66
2023/11/10 10:13:19;;;;;;;0.95;0.35;;;17.50;64.40;;;;;;5053140;28;20037;-65
2023/11/10 10:15:44;;;;;;;0.80;0.40;;;17.50;64.40;;;;;;5055245;28;20552;-66
2023/11/10 10:18:10;;;;;;;2.20;0.30;;;17.50;64.40;;;;;;5054595;28;20025;-66
2023/11/10 10:20:39;;;;;;;0.73;0.40;;;17.50;64.40;;;;;;5047195;28;20071;-67
2023/11/10 10:23:09;;;;;;;0.50;0.30;;;17.50;64.40;;;;;;5048974;28;20549;-67
2023/11/10 10:25:38;;;;;;;1.20;0.40;;;17.50;64.40;;;;;;5041906;28;20036;-67
2023/11/10 10:28:06;;;;;;;0.98;0.30;;;17.50;64.40;;;;;;5041291;28;20029;-65
2023/11/10 10:30:32;;;;;;;0.77;0.50;;;17.50;64.40;;;;;;5043532;28;22288;-62
2023/11/10 10:32:58;;;;;;;0.30;0.20;;;17.40;64.40;;;;;;5043911;28;20029;-67
2023/11/10 10:35:23;;;;;;;0.50;0.30;;;17.50;64.40;;;;;;5039585;28;20050;-66
2023/11/10 10:37:53;;;;;;;1.20;0.40;;;17.50;64.40;;;;;;5042202;28;20029;-67
2023/11/10 10:40:19;;;;;;;1.70;0.50;;;17.50;64.40;;;;;;5044366;28;20075;-67
2023/11/10 10:42:45;;;;;;;1.13;0.35;;;17.50;64.40;;;;;;5049902;28;20052;-66
2023/11/10 10:45:12;;;;;;;0.38;0.20;;;17.50;64.40;;;;;;5043195;28;20033;-67
2023/11/10 10:47:39;;;;;;;1.25;0.30;;;17.50;64.40;;;;;;5045505;28;20107;-67
2023/11/10 10:50:10;;;;;;;0.75;0.35;;;17.50;64.40;;;;;;5042565;28;20056;-66
2023/11/10 10:52:36;;;;;;;5.50;0.55;;;17.50;64.40;;;;;;5041623;28;20029;-66
2023/11/10 10:55:06;;;;;;;2.92;0.35;;;17.40;64.40;;;;;;5048948;28;20111;-64
2023/11/10 10:57:39;;;;;;;1.52;0.40;;;17.50;64.40;;;;;;5046513;28;20110;-67
2023/11/10 11:00:06;;;;;;;2.50;0.40;;;17.40;64.40;;;;;;5054724;28;20174;-65
2023/11/10 11:02:39;;;;;;;0.38;0.30;;;17.50;64.50;;;;;;5045054;28;20044;-66
2023/11/10 11:05:38;;;;;;;1.52;0.50;;;17.40;64.40;;;;;;5051195;28;20451;-66
2023/11/10 11:08:30;;;;;;;0.50;0.20;;;17.40;64.40;;;;;;5052336;28;20119;-65
2023/11/10 11:11:15;;;;;;;0.50;0.20;;;17.40;64.50;;;;;;5044741;28;20037;-66
2023/11/10 11:14:05;;;;;;;0.40;0.40;;;17.40;64.50;;;;;;5051413;28;20025;-67
2023/11/10 11:16:52;;;;;;;0.40;0.30;;;17.40;64.60;;;;;;5045930;28;20049;-66
2023/11/10 11:19:28;;;;;;;0.47;0.30;;;17.40;64.60;;;;;;5036145;28;20039;-66
2023/11/10 11:21:55;;;;;;;1.70;0.40;;;17.40;64.60;;;;;;5039285;28;20033;-66
2023/11/10 11:24:25;;;;;;;0.25;0.22;;;17.40;64.70;;;;;;5048147;28;20025;-66
2023/11/10 11:26:58;;;;;;;0.68;0.40;;;17.40;64.70;;;;;;5050902;28;20033;-65
2023/11/10 11:29:25;;;;;;;1.35;0.30;;;17.40;64.80;;;;;;5049184;28;20053;-65
2023/11/10 11:31:51;;;;;;;1.00;0.32;;;17.40;64.80;;;;;;5049876;28;20029;-66
2023/11/10 11:34:21;;;;;;;0.88;0.40;;;17.40;64.80;;;;;;5049414;28;20029;-66
2023/11/10 11:36:48;;;;;;;1.13;0.32;;;17.40;64.90;;;;;;5049935;28;20063;-65
2023/11/10 11:39:15;;;;;;;1.08;0.32;;;17.40;64.90;;;;;;5053269;28;20029;-66
2023/11/10 11:41:46;;;;;;;0.40;0.40;;;17.40;64.90;;;;;;5046383;28;20037;-62
2023/11/10 11:44:12;;;;;;;1.27;0.28;;;17.40;64.90;;;;;;5037456;28;20025;-66
2023/11/10 11:46:41;;;;;;;0.70;0.35;;;17.40;64.90;;;;;;5046371;28;20036;-62
2023/11/10 11:49:08;;;;;;;0.77;0.30;;;17.40;64.90;;;;;;5046826;28;20479;-66
2023/11/10 11:51:34;;;;;;;0.55;0.30;;;17.40;64.90;;;;;;5045249;28;20033;-66
2023/11/10 11:54:00;;;;;;;0.40;0.40;;;17.40;64.90;;;;;;5045386;28;20534;-66
2023/11/10 11:56:25;;;;;;;0.63;0.30;;;17.40;64.90;;;;;;5043397;28;20567;-62
2023/11/10 11:58:51;;;;;;;0.50;0.25;;;17.40;64.90;;;;;;5054735;28;20063;-66
2023/11/10 12:01:17;;;;;;;1.85;0.30;;;17.40;64.90;;;;;;5045714;28;20060;-66
2023/11/10 12:03:42;;;;;;;0.57;0.30;;;17.40;64.90;;;;;;5041567;28;20083;-65
2023/11/10 12:06:08;;;;;;;0.55;0.30;;;17.40;64.90;;;;;;5038385;28;20147;-66
2023/11/10 12:08:34;;;;;;;1.73;0.30;;;17.30;64.90;;;;;;5036505;28;20390;-66
2023/11/10 12:10:59;;;;;;;0.60;0.22;;;17.40;65.00;;;;;;5042114;28;20021;-66
2023/11/10 12:13:26;;;;;;;0.50;0.28;;;17.30;64.90;;;;;;5043820;28;20045;-65
2023/11/10 12:15:54;;;;;;;0.32;0.30;;;17.30;64.90;;;;;;5047015;28;20028;-66
2023/11/10 12:18:19;;;;;;;0.22;0.20;;;17.40;65.00;;;;;;5045268;28;20034;-63
2023/11/10 12:20:45;;;;;;;0.77;0.30;;;17.40;65.00;;;;;;5040201;28;20206;-67
2023/11/10 12:23:12;;;;;;;0.70;0.30;;;17.30;64.90;;;;;;4162495;28;10000939;-65
2023/11/10 12:25:38;;;;;;;0.70;0.30;;;17.30;64.90;;;;;;5052284;28;20053;-61
2023/11/10 12:28:09;;;;;;;0.63;0.38;;;17.40;65.00;;;;;;5041029;28;20119;-61
2023/11/10 12:30:34;;;;;;;1.05;0.30;;;17.30;65.00;;;;;;5046358;28;20044;-65
2023/11/10 12:33:02;;;;;;;1.20;0.28;;;17.30;65.00;;;;;;5045701;28;20033;-66
2023/11/10 12:35:27;;;;;;;0.45;0.20;;;17.30;65.00;;;;;;5045785;28;20060;-65
2023/11/10 12:37:54;;;;;;;0.70;0.30;;;17.30;65.00;;;;;;5045763;28;20546;-66
2023/11/10 12:40:20;;;;;;;0.40;0.38;;;17.30;65.10;;;;;;5045817;28;20108;-62
2023/11/10 12:42:49;;;;;;;0.73;0.20;;;17.30;65.00;;;;;;5046450;28;20047;-66